Time;durP1;ratioP1;P1;durP2;ratioP2;P2;SDS_P1;SDS_P2;PMS_P1;PMS_P2;Temp;Humidity;BMP_temperature;BMP_pressure;BME280_temperature;BME280_humidity;BME280_pressure;Samples;Min_cycle;Max_cycle;Signal;HPM_P1;HPM_P2
2022/06/05 00:01:45;;;;;;;0.15;0.15;;;;;;;;;;5045180;28;20087;-70
2022/06/05 00:04:20;;;;;;;0.00;0.00;;;;;;;;;;5047288;28;20041;-69
2022/06/05 00:06:48;;;;;;;;;;;;;;;;;;5047914;28;20501;-69
2022/06/05 00:09:23;;;;;;;0.00;0.00;;;;;;;;;;5048287;28;19971;-68
2022/06/05 00:11:55;;;;;;;0.00;0.00;;;;;;;;;;5044467;28;20108;-69
2022/06/05 00:14:24;;;;;;;0.00;0.00;;;;;;;;;;5048065;28;20049;-69
2022/06/05 00:16:52;;;;;;;0.20;0.20;;;;;;;;;;5046924;28;20072;-69
2022/06/05 00:19:22;;;;;;;0.10;0.10;;;;;;;;;;5041515;28;20053;-69
2022/06/05 00:21:51;;;;;;;0.10;0.10;;;;;;;;;;5043377;28;20415;-70
2022/06/05 00:24:20;;;;;;;0.22;0.22;;;;;;;;;;5043522;28;20041;-69
2022/06/05 00:26:52;;;;;;;0.00;0.00;;;;;;;;;;5046204;28;20049;-70
2022/06/05 00:29:34;;;;;;;0.10;0.10;;;;;;;;;;5043364;28;20048;-69
2022/06/05 00:32:06;;;;;;;0.10;0.10;;;;;;;;;;5048835;28;20115;-68
2022/06/05 00:34:35;;;;;;;0.38;0.38;;;;;;;;;;5051086;28;20048;-70
2022/06/05 00:37:15;;;;;;;0.30;0.30;;;;;;;;;;5050642;28;20077;-68
2022/06/05 00:39:47;;;;;;;0.00;0.00;;;;;;;;;;5044369;28;20103;-68
2022/06/05 00:42:18;;;;;;;0.00;0.00;;;;;;;;;;5046048;28;20404;-68
2022/06/05 00:44:48;;;;;;;0.05;0.05;;;;;;;;;;5051727;28;20061;-69
2022/06/05 00:47:18;;;;;;;0.00;0.00;;;;;;;;;;5048057;28;20056;-69
2022/06/05 00:49:50;;;;;;;0.00;0.00;;;;;;;;;;5049536;28;20381;-70
2022/06/05 00:52:19;;;;;;;0.00;0.00;;;;;;;;;;5047159;28;20153;-71
2022/06/05 00:54:48;;;;;;;0.00;0.00;;;;;;;;;;5050803;28;20140;-70
2022/06/05 00:57:17;;;;;;;0.00;0.00;;;;;;;;;;5047370;28;20057;-70
2022/06/05 00:59:47;;;;;;;0.25;0.25;;;;;;;;;;5045935;28;20068;-70
2022/06/05 01:02:15;;;;;;;1.00;1.00;;;;;;;;;;5050509;28;20041;-70
2022/06/05 01:04:46;;;;;;;1.98;0.52;;;;;;;;;;5050033;28;20048;-70
2022/06/05 01:07:16;;;;;;;0.32;0.32;;;;;;;;;;5045719;28;20162;-70
2022/06/05 01:09:47;;;;;;;0.25;0.25;;;;;;;;;;5051135;28;20076;-70
2022/06/05 01:12:19;;;;;;;0.65;0.65;;;;;;;;;;5046683;28;20047;-70
2022/06/05 01:14:56;;;;;;;0.00;0.00;;;;;;;;;;5047509;28;20045;-71
2022/06/05 01:17:27;;;;;;;0.10;0.10;;;;;;;;;;5045255;28;20045;-70
2022/06/05 01:20:08;;;;;;;0.00;0.00;;;;;;;;;;5047690;28;20156;-70
2022/06/05 01:22:54;;;;;;;0.00;0.00;;;;;;;;;;5050700;28;20080;-68
2022/06/05 01:25:37;;;;;;;0.20;0.20;;;;;;;;;;5048283;28;20044;-69
2022/06/05 01:28:10;;;;;;;0.10;0.10;;;;;;;;;;5042422;28;20341;-68
2022/06/05 01:30:41;;;;;;;0.00;0.00;;;;;;;;;;5046720;28;20059;-70
2022/06/05 01:33:13;;;;;;;0.05;0.05;;;;;;;;;;5050441;28;20108;-70
2022/06/05 01:35:44;;;;;;;0.20;0.20;;;;;;;;;;5049020;28;20084;-70
2022/06/05 01:38:15;;;;;;;0.15;0.15;;;;;;;;;;5047052;28;20142;-70
2022/06/05 01:40:46;;;;;;;0.30;0.15;;;;;;;;;;5049011;28;20045;-70
2022/06/05 01:43:18;;;;;;;0.32;0.32;;;;;;;;;;5048445;28;20048;-69
2022/06/05 01:45:49;;;;;;;0.40;0.40;;;;;;;;;;5047314;28;20600;-69
2022/06/05 01:48:20;;;;;;;0.13;0.13;;;;;;;;;;5051149;28;20044;-70
2022/06/05 01:50:50;;;;;;;0.20;0.20;;;;;;;;;;5047526;28;20053;-70
2022/06/05 01:53:21;;;;;;;0.05;0.05;;;;;;;;;;5051320;28;20493;-70
2022/06/05 01:55:52;;;;;;;1.02;1.00;;;;;;;;;;5046081;28;20418;-69
2022/06/05 01:58:24;;;;;;;0.10;0.10;;;;;;;;;;5048068;28;20059;-70
2022/06/05 02:00:55;;;;;;;0.00;0.00;;;;;;;;;;5043601;28;20091;-70
2022/06/05 02:03:26;;;;;;;0.13;0.13;;;;;;;;;;5048627;28;20083;-70
2022/06/05 02:05:57;;;;;;;0.70;0.47;;;;;;;;;;5051501;28;20051;-70
2022/06/05 02:08:28;;;;;;;0.05;0.05;;;;;;;;;;5047719;28;20137;-70
2022/06/05 02:10:58;;;;;;;0.20;0.20;;;;;;;;;;5047160;28;20511;-69
2022/06/05 02:13:28;;;;;;;0.00;0.00;;;;;;;;;;5051569;28;20077;-70
2022/06/05 02:15:57;;;;;;;0.00;0.00;;;;;;;;;;5048898;28;20500;-70
2022/06/05 02:18:26;;;;;;;0.10;0.10;;;;;;;;;;5046179;28;20037;-70
2022/06/05 02:20:55;;;;;;;0.00;0.00;;;;;;;;;;5048839;28;20549;-69
2022/06/05 02:23:25;;;;;;;0.15;0.15;;;;;;;;;;5050431;28;20110;-70
2022/06/05 02:25:54;;;;;;;0.10;0.10;;;;;;;;;;5046518;28;20102;-69
2022/06/05 02:28:22;;;;;;;0.25;0.25;;;;;;;;;;5041312;28;20052;-70
2022/06/05 02:31:00;;;;;;;0.17;0.17;;;;;;;;;;5048282;28;20095;-70
2022/06/05 02:33:34;;;;;;;0.00;0.00;;;;;;;;;;5047475;28;20128;-70
2022/06/05 02:36:07;;;;;;;0.10;0.10;;;;;;;;;;5047841;28;20116;-70
2022/06/05 02:38:41;;;;;;;0.00;0.00;;;;;;;;;;5048193;28;20053;-69
2022/06/05 02:41:11;;;;;;;0.00;0.00;;;;;;;;;;5047978;28;20049;-69
2022/06/05 02:43:45;;;;;;;0.00;0.00;;;;;;;;;;5044354;28;20093;-69
2022/06/05 02:46:21;;;;;;;0.10;0.10;;;;;;;;;;5048641;28;20500;-70
2022/06/05 02:48:52;;;;;;;0.00;0.00;;;;;;;;;;5045504;28;20049;-69
2022/06/05 02:51:22;;;;;;;0.00;0.00;;;;;;;;;;5048640;28;20124;-69
2022/06/05 02:53:52;;;;;;;0.38;0.20;;;;;;;;;;5047000;28;20099;-70
2022/06/05 02:56:20;;;;;;;0.00;0.00;;;;;;;;;;5046874;28;20558;-70
2022/06/05 02:58:50;;;;;;;0.00;0.00;;;;;;;;;;5045656;28;20041;-69
2022/06/05 03:04:07;;;;;;;0.10;0.10;;;;;;;;;;5043156;28;20147;-70
2022/06/05 03:06:37;;;;;;;0.65;0.57;;;;;;;;;;5049082;28;20053;-70
2022/06/05 03:09:06;;;;;;;0.00;0.00;;;;;;;;;;5045473;28;20044;-69
2022/06/05 03:11:42;;;;;;;0.00;0.00;;;;;;;;;;5048402;28;20424;-69
2022/06/05 03:14:11;;;;;;;1.83;1.73;;;;;;;;;;5049303;28;20106;-70
2022/06/05 03:16:41;;;;;;;0.20;0.20;;;;;;;;;;5044445;28;20068;-69
2022/06/05 03:19:10;;;;;;;0.00;0.00;;;;;;;;;;5047453;28;20045;-70
2022/06/05 03:21:39;;;;;;;0.03;0.03;;;;;;;;;;5046511;28;20584;-70
2022/06/05 03:24:08;;;;;;;0.20;0.20;;;;;;;;;;5044864;28;20051;-70
2022/06/05 03:26:37;;;;;;;0.32;0.32;;;;;;;;;;5049025;28;20052;-69
2022/06/05 03:29:07;;;;;;;0.30;0.30;;;;;;;;;;5036406;28;20136;-70
2022/06/05 03:31:36;;;;;;;0.10;0.10;;;;;;;;;;5047858;28;20051;-69
2022/06/05 03:34:06;;;;;;;0.05;0.05;;;;;;;;;;5048142;28;20128;-70
2022/06/05 03:36:34;;;;;;;0.00;0.00;;;;;;;;;;5041955;28;20077;-69
2022/06/05 03:39:03;;;;;;;0.00;0.00;;;;;;;;;;5049879;28;20080;-70
2022/06/05 03:41:31;;;;;;;0.45;0.45;;;;;;;;;;5046691;28;20103;-71
2022/06/05 03:44:00;;;;;;;0.00;0.00;;;;;;;;;;5047966;28;20518;-70
2022/06/05 03:46:28;;;;;;;0.85;0.85;;;;;;;;;;5045318;28;20081;-71
2022/06/05 03:48:57;;;;;;;0.28;0.28;;;;;;;;;;5047747;28;20049;-71
2022/06/05 03:51:27;;;;;;;0.00;0.00;;;;;;;;;;5044632;28;20045;-70
2022/06/05 03:53:55;;;;;;;0.00;0.00;;;;;;;;;;5026794;28;20115;-69
2022/06/05 03:56:25;;;;;;;0.10;0.10;;;;;;;;;;5024984;28;20046;-70
2022/06/05 03:58:54;;;;;;;0.38;0.38;;;;;;;;;;5023073;28;20548;-70
2022/06/05 04:01:23;;;;;;;0.98;0.98;;;;;;;;;;5027187;28;20108;-71
2022/06/05 04:03:52;;;;;;;0.45;0.45;;;;;;;;;;5019307;28;20393;-71
2022/06/05 04:06:22;;;;;;;0.28;0.10;;;;;;;;;;5031207;28;20140;-70
2022/06/05 04:08:52;;;;;;;0.20;0.20;;;;;;;;;;5032908;28;20045;-70
2022/06/05 04:11:21;;;;;;;0.30;0.30;;;;;;;;;;5029471;28;20125;-70
2022/06/05 04:13:51;;;;;;;0.00;0.00;;;;;;;;;;5034283;28;20116;-70
2022/06/05 04:16:21;;;;;;;0.10;0.10;;;;;;;;;;5025137;28;20088;-70
2022/06/05 04:18:50;;;;;;;0.00;0.00;;;;;;;;;;5032516;28;20413;-70
2022/06/05 04:21:20;;;;;;;0.70;0.70;;;;;;;;;;5031417;28;20042;-70
2022/06/05 04:23:49;;;;;;;0.00;0.00;;;;;;;;;;5027262;28;20045;-70
2022/06/05 04:26:20;;;;;;;0.03;0.03;;;;;;;;;;5029658;28;20096;-69
2022/06/05 04:28:49;;;;;;;0.00;0.00;;;;;;;;;;5028277;28;20053;-70
2022/06/05 04:31:20;;;;;;;0.20;0.20;;;;;;;;;;5032521;28;20045;-70
2022/06/05 04:33:48;;;;;;;1.02;1.02;;;;;;;;;;5032264;28;20053;-70
2022/06/05 04:36:17;;;;;;;0.00;0.00;;;;;;;;;;5038198;28;20376;-70
2022/06/05 04:38:45;;;;;;;0.00;0.00;;;;;;;;;;5032903;28;20489;-70
2022/06/05 04:41:14;;;;;;;0.03;0.03;;;;;;;;;;5046371;28;20051;-70
2022/06/05 04:43:44;;;;;;;0.00;0.00;;;;;;;;;;5027602;28;20104;-70
2022/06/05 04:46:14;;;;;;;0.00;0.00;;;;;;;;;;5030189;28;20128;-70
2022/06/05 04:48:42;;;;;;;0.00;0.00;;;;;;;;;;5028721;28;20061;-69
2022/06/05 04:51:12;;;;;;;0.45;0.45;;;;;;;;;;5036732;28;20136;-69
2022/06/05 04:53:41;;;;;;;0.32;0.32;;;;;;;;;;5048879;28;20049;-71
2022/06/05 04:56:12;;;;;;;0.10;0.10;;;;;;;;;;5046893;28;20056;-70
2022/06/05 04:58:41;;;;;;;2.45;0.55;;;;;;;;;;5053128;28;20114;-70
2022/06/05 05:01:15;;;;;;;0.15;0.15;;;;;;;;;;5053008;28;20124;-70
2022/06/05 05:03:44;;;;;;;0.93;0.88;;;;;;;;;;5044109;28;20132;-70
2022/06/05 05:06:13;;;;;;;0.00;0.00;;;;;;;;;;5051670;28;20047;-70
2022/06/05 05:08:42;;;;;;;0.10;0.10;;;;;;;;;;5052640;28;20080;-70
2022/06/05 05:11:10;;;;;;;0.57;0.57;;;;;;;;;;5050319;28;20040;-70
2022/06/05 05:13:39;;;;;;;0.20;0.20;;;;;;;;;;5051591;28;20088;-70
2022/06/05 05:16:08;;;;;;;0.00;0.00;;;;;;;;;;5045650;28;20040;-70
2022/06/05 05:18:39;;;;;;;0.00;0.00;;;;;;;;;;5045919;28;20076;-70
2022/06/05 05:21:11;;;;;;;0.00;0.00;;;;;;;;;;5043477;28;20131;-70
2022/06/05 05:23:40;;;;;;;0.32;0.32;;;;;;;;;;5044376;28;20084;-70
2022/06/05 05:26:10;;;;;;;0.00;0.00;;;;;;;;;;5042518;28;20045;-70
2022/06/05 05:28:39;;;;;;;0.30;0.30;;;;;;;;;;5033314;28;20068;-70
2022/06/05 05:31:11;;;;;;;0.00;0.00;;;;;;;;;;5043150;28;20422;-70
2022/06/05 05:33:42;;;;;;;0.25;0.20;;;;;;;;;;5037381;28;20084;-70
2022/06/05 05:36:11;;;;;;;0.10;0.10;;;;;;;;;;5045715;28;20390;-70
2022/06/05 05:42:04;;;;;;;0.28;0.28;;;;;;;;;;5041515;28;20064;-70
2022/06/05 05:44:15;;;;;;;0.70;0.70;;;;;;;;;;5045990;28;20131;-70
2022/06/05 05:46:44;;;;;;;0.75;0.70;;;;;;;;;;5045428;28;20091;-70
2022/06/05 05:49:15;;;;;;;0.20;0.20;;;;;;;;;;5047317;28;20151;-70
2022/06/05 05:51:44;;;;;;;0.00;0.00;;;;;;;;;;5042846;28;20080;-69
2022/06/05 05:54:13;;;;;;;0.20;0.20;;;;;;;;;;5042316;28;20099;-70
2022/06/05 05:56:41;;;;;;;0.20;0.20;;;;;;;;;;5038954;28;20053;-69
2022/06/05 05:59:10;;;;;;;0.28;0.28;;;;;;;;;;5037761;28;20115;-69
2022/06/05 06:01:39;;;;;;;0.00;0.00;;;;;;;;;;5035014;28;20138;-70
2022/06/05 06:04:08;;;;;;;0.63;0.63;;;;;;;;;;5041782;28;20045;-70
2022/06/05 06:06:41;;;;;;;0.10;0.10;;;;;;;;;;5036401;28;20495;-71
2022/06/05 06:09:10;;;;;;;0.98;0.90;;;;;;;;;;5040182;28;20041;-70
2022/06/05 06:11:39;;;;;;;0.00;0.00;;;;;;;;;;5040687;28;20056;-70
2022/06/05 06:14:07;;;;;;;0.00;0.00;;;;;;;;;;5044257;28;20084;-70
2022/06/05 06:16:36;;;;;;;0.00;0.00;;;;;;;;;;5049857;28;20056;-70
2022/06/05 06:19:05;;;;;;;0.10;0.10;;;;;;;;;;5042401;28;20056;-70
2022/06/05 06:21:34;;;;;;;0.00;0.00;;;;;;;;;;5044327;28;20053;-70
2022/06/05 06:24:11;;;;;;;0.63;0.63;;;;;;;;;;5041444;28;20436;-70
2022/06/05 06:26:41;;;;;;;0.00;0.00;;;;;;;;;;5035317;28;20049;-70
2022/06/05 06:29:09;;;;;;;0.10;0.10;;;;;;;;;;5037124;28;20049;-69
2022/06/05 06:31:39;;;;;;;0.00;0.00;;;;;;;;;;5042632;28;20056;-69
2022/06/05 06:34:08;;;;;;;0.52;0.47;;;;;;;;;;5042019;28;20091;-69
2022/06/05 06:36:36;;;;;;;0.00;0.00;;;;;;;;;;5038965;28;20132;-69
2022/06/05 06:39:19;;;;;;;0.95;0.13;;;;;;;;;;5005528;28;20263;-70
2022/06/05 06:41:48;;;;;;;0.38;0.38;;;;;;;;;;5039822;28;20342;-70
2022/06/05 06:44:18;;;;;;;0.00;0.00;;;;;;;;;;5037734;28;20448;-70
2022/06/05 06:46:46;;;;;;;0.00;0.00;;;;;;;;;;5044670;28;20056;-69
2022/06/05 06:49:15;;;;;;;0.20;0.20;;;;;;;;;;5045640;28;20500;-70
2022/06/05 06:51:44;;;;;;;0.00;0.00;;;;;;;;;;5043452;28;20041;-70
2022/06/05 06:54:13;;;;;;;0.00;0.00;;;;;;;;;;5046251;28;20114;-70
2022/06/05 06:56:43;;;;;;;0.00;0.00;;;;;;;;;;5040111;28;20660;-70
2022/06/05 06:59:12;;;;;;;0.00;0.00;;;;;;;;;;5034499;28;20049;-70
2022/06/05 07:01:41;;;;;;;0.10;0.10;;;;;;;;;;5039920;28;20041;-69
2022/06/05 07:04:09;;;;;;;0.00;0.00;;;;;;;;;;5045779;28;20572;-69
2022/06/05 07:06:38;;;;;;;0.00;0.00;;;;;;;;;;5045253;28;20053;-70
2022/06/05 07:09:07;;;;;;;0.08;0.08;;;;;;;;;;5039026;28;20052;-71
2022/06/05 07:11:36;;;;;;;0.00;0.00;;;;;;;;;;5041436;28;20397;-70
2022/06/05 07:14:06;;;;;;;1.20;1.10;;;;;;;;;;5040290;28;20087;-70
2022/06/05 07:16:34;;;;;;;0.30;0.30;;;;;;;;;;5040504;28;20103;-70
2022/06/05 07:19:04;;;;;;;0.30;0.30;;;;;;;;;;5041985;28;20072;-70
2022/06/05 07:21:33;;;;;;;0.00;0.00;;;;;;;;;;5043492;28;20397;-70
2022/06/05 07:24:02;;;;;;;0.22;0.22;;;;;;;;;;5044794;28;20080;-70
2022/06/05 07:26:32;;;;;;;0.00;0.00;;;;;;;;;;5038174;28;20512;-70
2022/06/05 07:29:02;;;;;;;0.50;0.50;;;;;;;;;;5043515;28;20084;-70
2022/06/05 07:31:33;;;;;;;1.85;0.08;;;;;;;;;;5043721;28;20063;-70
2022/06/05 07:34:02;;;;;;;0.25;0.25;;;;;;;;;;5040644;28;20180;-70
2022/06/05 07:36:31;;;;;;;0.00;0.00;;;;;;;;;;5044830;28;20045;-69
2022/06/05 07:39:02;;;;;;;0.55;0.45;;;;;;;;;;5046751;28;20068;-70
2022/06/05 07:41:32;;;;;;;0.00;0.00;;;;;;;;;;5045098;28;20124;-70
2022/06/05 07:44:01;;;;;;;0.00;0.00;;;;;;;;;;5040915;28;20087;-71
2022/06/05 07:46:33;;;;;;;0.20;0.20;;;;;;;;;;5039964;28;20036;-70
2022/06/05 07:49:02;;;;;;;0.00;0.00;;;;;;;;;;5044902;28;20396;-70
2022/06/05 07:54:29;;;;;;;0.38;0.38;;;;;;;;;;5022682;28;20042;-69
2022/06/05 07:56:59;;;;;;;0.00;0.00;;;;;;;;;;5023798;28;20081;-69
2022/06/05 07:59:29;;;;;;;0.40;0.30;;;;;;;;;;5021748;28;20046;-69
2022/06/05 08:02:00;;;;;;;0.47;0.35;;;;;;;;;;5016240;28;20037;-69
2022/06/05 08:04:29;;;;;;;0.00;0.00;;;;;;;;;;5026156;28;20037;-70
2022/06/05 08:06:59;;;;;;;0.00;0.00;;;;;;;;;;5020701;28;20045;-69
2022/06/05 08:09:29;;;;;;;0.50;0.50;;;;;;;;;;5030272;28;20052;-69
2022/06/05 08:11:57;;;;;;;0.10;0.10;;;;;;;;;;5028248;28;20049;-69
2022/06/05 08:14:26;;;;;;;0.20;0.20;;;;;;;;;;5023512;28;20056;-69
2022/06/05 08:16:55;;;;;;;0.32;0.30;;;;;;;;;;5016460;28;20115;-68
2022/06/05 08:19:26;;;;;;;0.52;0.52;;;;;;;;;;5020843;28;20083;-68
2022/06/05 08:21:55;;;;;;;0.10;0.10;;;;;;;;;;5025044;28;21797;-68
2022/06/05 08:24:25;;;;;;;0.17;0.17;;;;;;;;;;5026325;28;20072;-68
2022/06/05 08:26:54;;;;;;;0.43;0.43;;;;;;;;;;5020690;28;20038;-69
2022/06/05 08:29:25;;;;;;;0.00;0.00;;;;;;;;;;5013307;28;20061;-68
2022/06/05 08:31:54;;;;;;;0.03;0.03;;;;;;;;;;5005946;28;20391;-69
2022/06/05 08:34:23;;;;;;;0.28;0.28;;;;;;;;;;5005252;28;20076;-69
2022/06/05 08:42:26;;;;;;;0.73;0.73;;;;;;;;;;5027762;28;20111;-69
2022/06/05 08:44:58;;;;;;;0.45;0.45;;;;;;;;;;5016468;28;20479;-69
2022/06/05 08:47:29;;;;;;;0.00;0.00;;;;;;;;;;5019889;28;20054;-68
2022/06/05 08:50:01;;;;;;;0.30;0.30;;;;;;;;;;5018175;28;20055;-68
2022/06/05 08:52:35;;;;;;;1.67;0.52;;;;;;;;;;5029511;28;20106;-69
2022/06/05 08:55:07;;;;;;;0.00;0.00;;;;;;;;;;5043202;28;20056;-69
2022/06/05 08:57:37;;;;;;;0.10;0.10;;;;;;;;;;5040365;28;20471;-69
2022/06/05 09:00:08;;;;;;;0.60;0.40;;;;;;;;;;5043737;28;20049;-68
2022/06/05 09:02:46;;;;;;;0.15;0.15;;;;;;;;;;5045304;28;20061;-70
2022/06/05 09:05:19;;;;;;;0.13;0.13;;;;;;;;;;5044011;28;20045;-69
2022/06/05 09:07:51;;;;;;;0.75;0.75;;;;;;;;;;5046203;28;20428;-69
2022/06/05 09:10:23;;;;;;;0.10;0.10;;;;;;;;;;5044536;28;20059;-69
2022/06/05 09:12:54;;;;;;;0.00;0.00;;;;;;;;;;5039943;28;20045;-69
2022/06/05 09:15:26;;;;;;;0.30;0.25;;;;;;;;;;5040397;28;20195;-70
2022/06/05 09:17:56;;;;;;;7.53;1.40;;;;;;;;;;5050162;28;20412;-69
2022/06/05 09:20:43;;;;;;;0.22;0.20;;;;;;;;;;5044652;28;20048;-69
2022/06/05 09:23:19;;;;;;;0.10;0.10;;;;;;;;;;5046460;28;20045;-69
2022/06/05 09:25:51;;;;;;;0.28;0.25;;;;;;;;;;5039604;28;20052;-69
2022/06/05 09:28:46;;;;;;;0.10;0.00;;;;;;;;;;5040713;28;20044;-70
2022/06/05 09:31:15;;;;;;;;;;;;;;;;;;5045773;28;20099;-70
2022/06/05 09:33:44;;;;;;;0.00;0.00;;;;;;;;;;5044366;28;20475;-69
2022/06/05 09:36:20;;;;;;;0.10;0.10;;;;;;;;;;5046222;28;20055;-69
2022/06/05 09:38:53;;;;;;;0.17;0.17;;;;;;;;;;5041241;28;20131;-69
2022/06/05 09:41:32;;;;;;;0.60;0.55;;;;;;;;;;5045655;28;20041;-69
2022/06/05 09:44:09;;;;;;;0.00;0.00;;;;;;;;;;5047570;28;20079;-70
2022/06/05 09:46:48;;;;;;;0.10;0.10;;;;;;;;;;5040887;28;20412;-69
2022/06/05 09:49:18;;;;;;;0.28;0.28;;;;;;;;;;5019064;28;20489;-68
2022/06/05 09:51:47;;;;;;;0.25;0.25;;;;;;;;;;5048280;28;20105;-69
2022/06/05 09:54:20;;;;;;;0.05;0.05;;;;;;;;;;5044784;28;20111;-69
2022/06/05 09:59:50;;;;;;;0.20;0.20;;;;;;;;;;5043755;28;20045;-69
2022/06/05 10:02:21;;;;;;;0.20;0.20;;;;;;;;;;5051371;28;20060;-69
2022/06/05 10:04:50;;;;;;;0.10;0.10;;;;;;;;;;5049646;28;20083;-69
2022/06/05 10:07:39;;;;;;;0.03;0.03;;;;;;;;;;5045794;28;20128;-69
2022/06/05 10:10:17;;;;;;;0.00;0.00;;;;;;;;;;5049087;28;20057;-69
2022/06/05 10:12:49;;;;;;;0.05;0.05;;;;;;;;;;5049673;28;20049;-69
2022/06/05 10:15:21;;;;;;;0.00;0.00;;;;;;;;;;5048124;28;20140;-69
2022/06/05 10:17:51;;;;;;;0.00;0.00;;;;;;;;;;5046739;28;20143;-69
2022/06/05 10:20:31;;;;;;;0.20;0.20;;;;;;;;;;5049391;28;20131;-69
2022/06/05 10:23:18;;;;;;;0.20;0.20;;;;;;;;;;5047252;28;20051;-69
2022/06/05 10:25:52;;;;;;;0.00;0.00;;;;;;;;;;5049555;28;20135;-69
2022/06/05 10:28:22;;;;;;;0.30;0.30;;;;;;;;;;5045642;28;20053;-69
2022/06/05 10:30:57;;;;;;;0.22;0.22;;;;;;;;;;5047854;28;20312;-69
2022/06/05 10:33:31;;;;;;;0.20;0.20;;;;;;;;;;5047916;28;20049;-70
2022/06/05 10:36:01;;;;;;;1.27;0.30;;;;;;;;;;5049831;28;20123;-69
2022/06/05 10:38:34;;;;;;;0.30;0.30;;;;;;;;;;5045386;28;20380;-70
2022/06/05 10:41:07;;;;;;;0.00;0.00;;;;;;;;;;5052134;28;20052;-70
2022/06/05 10:43:36;;;;;;;0.45;0.43;;;;;;;;;;5049466;28;20083;-70
2022/06/05 10:46:19;;;;;;;0.43;0.43;;;;;;;;;;5042854;28;20064;-70
2022/06/05 10:48:52;;;;;;;0.03;0.03;;;;;;;;;;5042676;28;20130;-70
2022/06/05 10:51:24;;;;;;;0.88;0.85;;;;;;;;;;5044350;28;20045;-69
2022/06/05 10:53:55;;;;;;;0.45;0.45;;;;;;;;;;5036564;28;20084;-70
2022/06/05 10:56:30;;;;;;;0.00;0.00;;;;;;;;;;5023452;28;20041;-69
2022/06/05 10:59:02;;;;;;;0.47;0.47;;;;;;;;;;5031118;28;20055;-69
2022/06/05 11:01:52;;;;;;;0.10;0.10;;;;;;;;;;5029988;28;20091;-69
2022/06/05 11:04:30;;;;;;;0.30;0.30;;;;;;;;;;5026641;28;20046;-69
2022/06/05 11:07:03;;;;;;;0.40;0.40;;;;;;;;;;5023283;28;20050;-72
2022/06/05 11:09:41;;;;;;;0.10;0.10;;;;;;;;;;5026733;28;20128;-70
2022/06/05 11:15:04;;;;;;;0.75;0.75;;;;;;;;;;5023947;28;20136;-70
2022/06/05 11:17:35;;;;;;;0.32;0.32;;;;;;;;;;5026932;28;20577;-70
2022/06/05 11:20:09;;;;;;;0.52;0.47;;;;;;;;;;5028855;28;20049;-71
2022/06/05 11:22:40;;;;;;;0.13;0.13;;;;;;;;;;5028185;28;20050;-69
2022/06/05 11:25:14;;;;;;;0.52;0.52;;;;;;;;;;5024805;28;20076;-69
2022/06/05 11:27:52;;;;;;;0.20;0.20;;;;;;;;;;5023295;28;20561;-69
2022/06/05 11:30:24;;;;;;;0.43;0.40;;;;;;;;;;5017262;28;20064;-69
2022/06/05 11:32:57;;;;;;;0.75;0.75;;;;;;;;;;5028212;28;20075;-68
2022/06/05 11:35:33;;;;;;;1.00;1.00;;;;;;;;;;5028880;28;20049;-69
2022/06/05 11:38:05;;;;;;;0.90;0.90;;;;;;;;;;5022872;28;20045;-69
2022/06/05 11:40:37;;;;;;;0.47;0.47;;;;;;;;;;5023329;28;20136;-70
2022/06/05 11:43:17;;;;;;;1.00;1.00;;;;;;;;;;5030566;28;20038;-69
2022/06/05 11:45:48;;;;;;;0.00;0.00;;;;;;;;;;5026539;28;20054;-68
2022/06/05 11:48:22;;;;;;;0.40;0.40;;;;;;;;;;5031604;28;20049;-69
2022/06/05 11:50:54;;;;;;;0.13;0.10;;;;;;;;;;5016658;28;20727;-69
2022/06/05 11:53:26;;;;;;;0.32;0.15;;;;;;;;;;5033428;28;20053;-68
2022/06/05 11:55:56;;;;;;;0.30;0.30;;;;;;;;;;5046393;28;20465;-68
2022/06/05 11:58:34;;;;;;;1.45;0.65;;;;;;;;;;5041074;28;20053;-69
2022/06/05 12:01:08;;;;;;;0.00;0.00;;;;;;;;;;5022114;28;20102;-69
2022/06/05 12:03:38;;;;;;;1.42;1.38;;;;;;;;;;5044002;28;20552;-70
2022/06/05 12:06:13;;;;;;;0.55;0.55;;;;;;;;;;5041745;28;20048;-66
2022/06/05 12:08:44;;;;;;;0.38;0.38;;;;;;;;;;5048176;28;20049;-66
2022/06/05 12:11:15;;;;;;;0.28;0.28;;;;;;;;;;5045790;28;20045;-69
2022/06/05 12:13:53;;;;;;;0.57;0.57;;;;;;;;;;5046996;28;20041;-68
2022/06/05 12:16:27;;;;;;;0.15;0.15;;;;;;;;;;5046258;28;20129;-69
2022/06/05 12:19:02;;;;;;;0.75;0.75;;;;;;;;;;5047711;28;20056;-69
2022/06/05 12:21:37;;;;;;;0.10;0.10;;;;;;;;;;5046534;28;20045;-69
2022/06/05 12:24:06;;;;;;;;;;;;;;;;;;5049235;28;20056;-69
2022/06/05 12:26:40;;;;;;;0.10;0.10;;;;;;;;;;5045531;28;20020;-69
2022/06/05 12:29:09;;;;;;;;;;;;;;;;;;5052309;28;20500;-69
2022/06/05 12:31:41;;;;;;;0.20;0.20;;;;;;;;;;5052668;28;19921;-67
2022/06/05 12:34:13;;;;;;;0.00;0.00;;;;;;;;;;5050714;28;20094;-67
2022/06/05 12:36:43;;;;;;;0.40;0.40;;;;;;;;;;5051515;28;20048;-68
2022/06/05 12:39:16;;;;;;;0.08;0.08;;;;;;;;;;5052165;28;20191;-68
2022/06/05 12:41:49;;;;;;;0.00;0.00;;;;;;;;;;5039681;28;20139;-67
2022/06/05 12:44:23;;;;;;;6.13;1.08;;;;;;;;;;5047532;28;20057;-67
2022/06/05 12:46:58;;;;;;;0.35;0.35;;;;;;;;;;5051297;28;20049;-67
2022/06/05 12:49:29;;;;;;;0.88;0.88;;;;;;;;;;5054166;28;20055;-68
2022/06/05 12:52:12;;;;;;;0.45;0.40;;;;;;;;;;5058221;28;20058;-68
2022/06/05 12:54:43;;;;;;;0.22;0.22;;;;;;;;;;5032929;28;20053;-68
2022/06/05 12:57:34;;;;;;;0.45;0.45;;;;;;;;;;5031223;28;20140;-68
2022/06/05 13:00:07;;;;;;;0.05;0.05;;;;;;;;;;5040745;28;20045;-69
2022/06/05 13:02:43;;;;;;;0.22;0.22;;;;;;;;;;5032262;28;20140;-68
2022/06/05 13:05:18;;;;;;;0.30;0.30;;;;;;;;;;5031660;28;20133;-68
2022/06/05 13:07:51;;;;;;;0.20;0.20;;;;;;;;;;5032102;28;20057;-68
2022/06/05 13:10:28;;;;;;;0.57;0.57;;;;;;;;;;5032027;28;20152;-68
2022/06/05 13:13:02;;;;;;;0.57;0.57;;;;;;;;;;5029455;28;20052;-68
2022/06/05 13:15:33;;;;;;;0.35;0.35;;;;;;;;;;5032088;28;20124;-68
2022/06/05 13:18:07;;;;;;;1.00;0.90;;;;;;;;;;5031310;28;20084;-68
2022/06/05 13:20:40;;;;;;;0.17;0.17;;;;;;;;;;5045901;28;20536;-68
2022/06/05 13:23:14;;;;;;;0.47;0.30;;;;;;;;;;5036228;28;20307;-68
2022/06/05 13:25:54;;;;;;;0.10;0.10;;;;;;;;;;5044852;28;20073;-68
2022/06/05 13:28:27;;;;;;;0.75;0.60;;;;;;;;;;5030909;28;20128;-68
2022/06/05 13:30:59;;;;;;;0.10;0.10;;;;;;;;;;5032066;28;20076;-68
2022/06/05 13:33:33;;;;;;;0.20;0.20;;;;;;;;;;5029673;28;20045;-68
2022/06/05 13:36:07;;;;;;;0.00;0.00;;;;;;;;;;5031891;28;20045;-68
2022/06/05 13:38:36;;;;;;;;;;;;;;;;;;5029766;28;20060;-68
2022/06/05 13:41:08;;;;;;;0.40;0.40;;;;;;;;;;5032049;28;19930;-68
2022/06/05 13:43:39;;;;;;;0.50;0.50;;;;;;;;;;5031066;28;20045;-68
2022/06/05 13:46:21;;;;;;;0.00;0.00;;;;;;;;;;5040002;28;20582;-68
2022/06/05 13:48:56;;;;;;;0.00;0.00;;;;;;;;;;5030690;28;20050;-68
2022/06/05 13:51:27;;;;;;;0.52;0.52;;;;;;;;;;5032721;28;20072;-68
2022/06/05 13:54:01;;;;;;;1.40;1.30;;;;;;;;;;5051647;28;20061;-68
2022/06/05 13:56:33;;;;;;;0.30;0.30;;;;;;;;;;5050281;28;20037;-68
2022/06/05 13:59:03;;;;;;;0.00;0.00;;;;;;;;;;5050925;28;20040;-67
2022/06/05 14:01:34;;;;;;;1.35;0.93;;;;;;;;;;5050168;28;20063;-67
2022/06/05 14:04:19;;;;;;;0.40;0.40;;;;;;;;;;5051950;28;20096;-67
2022/06/05 14:06:57;;;;;;;0.08;0.08;;;;;;;;;;5050588;28;20198;-69
2022/06/05 14:09:36;;;;;;;0.25;0.25;;;;;;;;;;5051689;28;20048;-67
2022/06/05 14:12:07;;;;;;;0.25;0.22;;;;;;;;;;5046559;28;20064;-67
2022/06/05 14:14:36;;;;;;;1.27;1.17;;;;;;;;;;5050054;28;20049;-67
2022/06/05 14:17:06;;;;;;;0.03;0.03;;;;;;;;;;5050080;28;20110;-67
2022/06/05 14:19:38;;;;;;;0.15;0.15;;;;;;;;;;5051055;28;20439;-68
2022/06/05 14:22:09;;;;;;;0.85;0.85;;;;;;;;;;5051304;28;20059;-67
2022/06/05 14:24:41;;;;;;;0.35;0.35;;;;;;;;;;5050312;28;20168;-68
2022/06/05 14:27:15;;;;;;;0.40;0.40;;;;;;;;;;5039238;28;20414;-67
2022/06/05 14:29:47;;;;;;;1.02;1.02;;;;;;;;;;5049589;28;20134;-67
2022/06/05 14:32:23;;;;;;;0.25;0.25;;;;;;;;;;5047243;28;20399;-68
2022/06/05 14:35:09;;;;;;;0.60;0.60;;;;;;;;;;5042248;28;20041;-67
2022/06/05 14:37:39;;;;;;;0.30;0.20;;;;;;;;;;5039748;28;20056;-67
2022/06/05 14:40:13;;;;;;;0.60;0.52;;;;;;;;;;5049944;28;20481;-67
2022/06/05 14:42:45;;;;;;;0.57;0.57;;;;;;;;;;5060007;28;20064;-67
2022/06/05 14:45:17;;;;;;;0.43;0.43;;;;;;;;;;5049669;28;20053;-66
2022/06/05 14:47:49;;;;;;;0.10;0.10;;;;;;;;;;5049739;28;20386;-67
2022/06/05 14:50:22;;;;;;;0.35;0.35;;;;;;;;;;5037358;28;20044;-68
2022/06/05 14:52:56;;;;;;;0.17;0.17;;;;;;;;;;5039337;28;20455;-69
2022/06/05 14:58:19;;;;;;;0.03;0.03;;;;;;;;;;5042299;28;20785;-68
2022/06/05 15:00:52;;;;;;;0.30;0.30;;;;;;;;;;5048168;28;20412;-68
2022/06/05 15:03:24;;;;;;;0.03;0.03;;;;;;;;;;5047634;28;20490;-69
2022/06/05 15:05:57;;;;;;;0.17;0.17;;;;;;;;;;5042085;28;20057;-69
2022/06/05 15:08:33;;;;;;;0.13;0.08;;;;;;;;;;5049106;28;20045;-68
2022/06/05 15:11:05;;;;;;;0.35;0.10;;;;;;;;;;5039488;28;20056;-68
2022/06/05 15:13:36;;;;;;;0.70;0.70;;;;;;;;;;5039105;28;20473;-68
2022/06/05 15:16:08;;;;;;;0.40;0.40;;;;;;;;;;5046439;28;20041;-68
2022/06/05 15:18:37;;;;;;;0.85;0.85;;;;;;;;;;5045018;28;20405;-68
2022/06/05 15:21:32;;;;;;;1.33;1.20;;;;;;;;;;5042975;28;20044;-67
2022/06/05 15:24:08;;;;;;;0.73;0.73;;;;;;;;;;5043627;28;20281;-67
2022/06/05 15:26:41;;;;;;;0.10;0.10;;;;;;;;;;5036617;28;20045;-68
2022/06/05 15:29:16;;;;;;;0.52;0.52;;;;;;;;;;5039104;28;20123;-67
2022/06/05 15:31:50;;;;;;;0.03;0.03;;;;;;;;;;5041071;28;20056;-67
2022/06/05 15:34:29;;;;;;;0.00;0.00;;;;;;;;;;5044152;28;20072;-68
2022/06/05 15:37:05;;;;;;;0.00;0.00;;;;;;;;;;5048575;28;20067;-68